Time;durP1;ratioP1;P1;durP2;ratioP2;P2;SDS_P1;SDS_P2;PMS_P1;PMS_P2;Temp;Humidity;BMP_temperature;BMP_pressure;BME280_temperature;BME280_humidity;BME280_pressure;Samples;Min_cycle;Max_cycle;Signal;HPM_P1;HPM_P2
2022/03/29 00:00:39;;;;;;;14.8;11.1;;;;;;;7.67;59.7832;937.0374;;;;
2022/03/29 00:03:04;;;;;;;14.9;10.8;;;;;;;7.73;59.30273;937.0281;;;;
2022/03/29 00:05:31;;;;;;;15.9;11.7;;;;;;;7.74;58.92969;937.0568;;;;
2022/03/29 00:07:56;;;;;;;31.5;14.5;;;;;;;7.75;58.80762;936.9579;;;;
2022/03/29 00:10:21;;;;;;;21.4;12;;;;;;;7.77;58.3916;937.0075;;;;
2022/03/29 00:12:46;;;;;;;18.1;11.1;;;;;;;7.86;58.15332;936.9935;;;;
2022/03/29 00:15:12;;;;;;;16.1;11.1;;;;;;;7.84;58.14941;936.955;;;;
2022/03/29 00:17:37;;;;;;;13.9;10.5;;;;;;;7.81;58.39551;936.9903;;;;
2022/03/29 00:20:03;;;;;;;14.3;10.5;;;;;;;7.8;58.24707;936.9612;;;;
2022/03/29 00:22:28;;;;;;;14.7;10;;;;;;;7.69;58.62793;936.872;;;;
2022/03/29 00:24:53;;;;;;;15.9;10.3;;;;;;;7.34;59.71582;936.8967;;;;
2022/03/29 00:27:19;;;;;;;13.1;10.3;;;;;;;7.23;60.25488;936.9231;;;;
2022/03/29 00:29:43;;;;;;;15;10.3;;;;;;;7.11;60.65527;936.9188;;;;
2022/03/29 00:32:09;;;;;;;16.3;10.4;;;;;;;7.14;60.70703;936.9061;;;;
2022/03/29 00:34:34;;;;;;;15.2;10.1;;;;;;;7.13;60.93164;936.9367;;;;
2022/03/29 00:36:59;;;;;;;16.7;10.7;;;;;;;7.06;61.06934;936.8973;;;;
2022/03/29 00:39:24;;;;;;;13.4;9.8;;;;;;;6.95;61.52832;936.8972;;;;
2022/03/29 00:41:49;;;;;;;13.9;9.7;;;;;;;6.95;61.4043;936.8845;;;;
2022/03/29 00:44:14;;;;;;;14;9.9;;;;;;;6.99;61.34277;936.8577;;;;
2022/03/29 00:46:40;;;;;;;15.9;10.4;;;;;;;6.97;61.33887;936.7733;;;;
2022/03/29 00:49:05;;;;;;;15.1;10.3;;;;;;;6.99;61.12695;936.8077;;;;
2022/03/29 00:51:30;;;;;;;16.1;10.8;;;;;;;6.92;61.23047;936.7566;;;;
2022/03/29 00:53:55;;;;;;;13.7;10.4;;;;;;;6.84;61.53613;936.7874;;;;
2022/03/29 00:56:21;;;;;;;13.9;10.2;;;;;;;6.75;61.99805;936.7344;;;;
2022/03/29 00:59:15;;;;;;;17.6;11.3;;;;;;;6.7;62.10352;936.6953;;;;
2022/03/29 01:01:41;;;;;;;15.1;10.7;;;;;;;6.7;62.00195;936.6962;;;;
2022/03/29 01:04:06;;;;;;;14.9;10.5;;;;;;;6.77;61.99902;936.6548;;;;
2022/03/29 01:06:32;;;;;;;16;10.4;;;;;;;6.63;62.41113;936.6655;;;;
2022/03/29 01:08:57;;;;;;;16.5;10.8;;;;;;;6.67;62.24609;936.6584;;;;
2022/03/29 01:11:22;;;;;;;14.1;10.8;;;;;;;6.65;62.31055;936.5787;;;;
2022/03/29 01:13:47;;;;;;;17.2;11.5;;;;;;;6.67;62.16699;936.5706;;;;
2022/03/29 01:18:38;;;;;;;15.1;11.4;;;;;;;6.66;62.39258;936.481;;;;
2022/03/29 01:21:03;;;;;;;16.4;11.7;;;;;;;6.52;62.96094;936.5142;;;;
2022/03/29 01:23:28;;;;;;;16.6;11.3;;;;;;;6.48;63.38379;936.4286;;;;
2022/03/29 01:25:53;;;;;;;15.7;11.7;;;;;;;6.49;63.43066;936.3987;;;;
2022/03/29 01:28:19;;;;;;;16.7;11.7;;;;;;;6.61;62.95117;936.313;;;;
2022/03/29 01:30:44;;;;;;;15.8;11.2;;;;;;;6.62;63.07617;936.3376;;;;
2022/03/29 01:33:09;;;;;;;14.5;11.2;;;;;;;6.52;63.21973;936.3416;;;;
2022/03/29 01:35:34;;;;;;;14.5;10.7;;;;;;;6.49;63.2832;936.3117;;;;
2022/03/29 01:37:59;;;;;;;15.5;11.3;;;;;;;6.39;63.81348;936.2445;;;;
2022/03/29 01:40:24;;;;;;;17.7;12.1;;;;;;;6.37;63.97754;936.2352;;;;
2022/03/29 01:42:50;;;;;;;16.6;12.2;;;;;;;6.43;63.81836;936.2061;;;;
2022/03/29 01:45:15;;;;;;;18.5;12.2;;;;;;;6.48;63.68945;936.1841;;;;
2022/03/29 01:47:40;;;;;;;15.8;10.8;;;;;;;6.49;63.66797;936.1495;;;;
2022/03/29 01:50:09;;;;;;;15.4;11.7;;;;;;;6.43;63.99902;936.1752;;;;
2022/03/29 01:52:35;;;;;;;16.7;11.7;;;;;;;6.23;64.79395;936.1003;;;;
2022/03/29 01:54:59;;;;;;;15.5;11.8;;;;;;;6.26;64.78809;936.0787;;;;
2022/03/29 01:57:31;;;;;;;18.3;11.9;;;;;;;6.36;64.34863;936.0793;;;;
2022/03/29 02:01:17;;;;;;;20.6;11.9;;;;;;;6.32;64.69434;936.0159;;;;
2022/03/29 02:02:21;;;;;;;18.5;11.9;;;;;;;6.36;64.5752;936.0262;;;;
2022/03/29 02:04:46;;;;;;;15;11.4;;;;;;;6.4;64.12988;936.0359;;;;
2022/03/29 02:07:12;;;;;;;18.4;12.4;;;;;;;6.37;64.11523;936.0069;;;;
2022/03/29 02:09:37;;;;;;;16.1;10.7;;;;;;;6.25;64.65039;936.0051;;;;
2022/03/29 02:12:03;;;;;;;15.8;11.6;;;;;;;6.2;64.82324;935.9642;;;;
2022/03/29 02:14:27;;;;;;;13.8;10.6;;;;;;;6.09;65.33789;935.968;;;;
2022/03/29 02:16:52;;;;;;;17.5;11.3;;;;;;;6.03;65.49805;935.9714;;;;
2022/03/29 02:19:18;;;;;;;16.5;10.4;;;;;;;5.85;66.16992;935.9343;;;;
2022/03/29 02:21:43;;;;;;;16.3;11.4;;;;;;;5.79;66.50098;935.8995;;;;
2022/03/29 02:24:08;;;;;;;15.9;10.7;;;;;;;5.89;66.14355;935.8727;;;;
2022/03/29 02:26:33;;;;;;;14.3;10.6;;;;;;;5.88;66.23145;935.829;;;;
2022/03/29 02:28:58;;;;;;;14.5;10.7;;;;;;;5.82;66.24512;935.8309;;;;
2022/03/29 02:31:24;;;;;;;14.6;11;;;;;;;5.96;66.0625;935.7395;;;;
2022/03/29 02:34:32;;;;;;;18;11.6;;;;;;;5.96;65.98535;935.8234;;;;
2022/03/29 02:36:58;;;;;;;14.4;10.7;;;;;;;6;65.90039;935.7191;;;;
2022/03/29 02:39:23;;;;;;;15;11.4;;;;;;;6.06;65.78418;935.6922;;;;
2022/03/29 02:41:50;;;;;;;26.6;13.7;;;;;;;6.06;65.7168;935.6542;;;;
2022/03/29 02:44:15;;;;;;;18.4;11.8;;;;;;;6.15;65.41406;935.6127;;;;
2022/03/29 02:46:40;;;;;;;14.5;10.9;;;;;;;6.18;65.41992;935.6008;;;;
2022/03/29 02:49:05;;;;;;;17.2;11.1;;;;;;;6.26;65.13672;935.6478;;;;
2022/03/29 02:51:30;;;;;;;18.1;11.4;;;;;;;6.34;64.85547;935.5886;;;;
2022/03/29 02:54:01;;;;;;;19.9;11;;;;;;;6.41;64.52637;935.554;;;;
2022/03/29 02:56:39;;;;;;;20.4;11.9;;;;;;;6.32;64.20801;935.4696;;;;
2022/03/29 02:59:05;;;;;;;18.8;11.3;;;;;;;6.38;63.97949;935.4606;;;;
2022/03/29 03:01:30;;;;;;;17.4;11;;;;;;;6.37;63.8877;935.4494;;;;
2022/03/29 03:03:55;;;;;;;18.8;11.4;;;;;;;6.37;63.93359;935.3561;;;;
2022/03/29 03:06:22;;;;;;;17.2;11.2;;;;;;;6.42;64.29102;935.3074;;;;
2022/03/29 03:08:46;;;;;;;15.5;11;;;;;;;6.49;63.52148;935.3349;;;;
2022/03/29 03:11:11;;;;;;;15.1;10.6;;;;;;;6.39;63.56445;935.4111;;;;
2022/03/29 03:13:50;;;;;;;16.6;10.8;;;;;;;6.3;63.96777;935.4272;;;;
2022/03/29 03:16:14;;;;;;;15.7;11.3;;;;;;;6.13;64.54102;935.3856;;;;
2022/03/29 03:18:39;;;;;;;15.3;10.3;;;;;;;5.97;65.39941;935.4269;;;;
2022/03/29 03:21:04;;;;;;;15.2;10.4;;;;;;;5.89;65.75781;935.412;;;;
2022/03/29 03:23:29;;;;;;;17.4;11.6;;;;;;;5.78;66.18359;935.4481;;;;
2022/03/29 03:28:19;;;;;;;17.3;11.1;;;;;;;5.86;65.65234;935.3703;;;;
2022/03/29 03:30:44;;;;;;;16.8;10.9;;;;;;;5.8;65.95996;935.3816;;;;
2022/03/29 03:33:09;;;;;;;19.2;11.8;;;;;;;5.86;65.85547;935.368;;;;
2022/03/29 03:35:34;;;;;;;17.6;10.6;;;;;;;5.86;65.89063;935.259;;;;
2022/03/29 03:38:00;;;;;;;19.6;11.2;;;;;;;5.9;65.87402;935.3336;;;;
2022/03/29 03:40:25;;;;;;;18.2;11.1;;;;;;;5.83;65.95313;935.2165;;;;
2022/03/29 03:42:51;;;;;;;19.8;11.3;;;;;;;5.85;65.91016;935.2936;;;;
2022/03/29 03:45:17;;;;;;;16.9;10.1;;;;;;;5.88;65.7793;935.1567;;;;
2022/03/29 03:47:46;;;;;;;18.1;10.5;;;;;;;5.86;65.46191;935.1777;;;;
2022/03/29 03:50:08;;;;;;;13.2;9.7;;;;;;;5.81;65.97266;935.1409;;;;
2022/03/29 03:52:34;;;;;;;16;10.2;;;;;;;5.71;66.20605;935.1116;;;;
2022/03/29 03:54:59;;;;;;;14.2;10.1;;;;;;;5.66;66.27832;935.0861;;;;
2022/03/29 03:57:25;;;;;;;13.9;9.4;;;;;;;5.71;66.27344;935.0887;;;;
2022/03/29 03:59:52;;;;;;;13.4;9.5;;;;;;;5.75;65.79492;935.0549;;;;
2022/03/29 04:02:49;;;;;;;15.5;10.3;;;;;;;5.81;65.76953;934.9442;;;;
2022/03/29 04:05:13;;;;;;;15.7;10.9;;;;;;;5.89;65.52344;934.9563;;;;
2022/03/29 04:07:38;;;;;;;21.9;11.6;;;;;;;5.96;65.49805;934.9683;;;;
2022/03/29 04:10:03;;;;;;;18;11.5;;;;;;;6;65.22266;934.9596;;;;
2022/03/29 04:12:29;;;;;;;16.7;11;;;;;;;5.99;65.09668;934.9034;;;;
2022/03/29 04:14:54;;;;;;;22.3;14.1;;;;;;;6.01;65.21289;934.8551;;;;
2022/03/29 04:17:20;;;;;;;21.7;13.8;;;;;;;6.01;65.16699;934.889;;;;
2022/03/29 04:20:10;;;;;;;26.3;12.2;;;;;;;5.96;65.41895;934.8363;;;;
2022/03/29 04:22:35;;;;;;;21.3;13.6;;;;;;;5.76;65.83008;934.777;;;;
2022/03/29 04:25:02;;;;;;;20.5;13;;;;;;;5.6;66.56152;934.7219;;;;
2022/03/29 04:27:27;;;;;;;19.8;13.4;;;;;;;5.51;67.02148;934.6409;;;;
2022/03/29 04:29:53;;;;;;;26;15.9;;;;;;;5.49;67.08496;934.6847;;;;
2022/03/29 04:32:18;;;;;;;25.5;16.3;;;;;;;5.51;66.96484;934.652;;;;
2022/03/29 04:34:44;;;;;;;18.6;12.9;;;;;;;5.53;66.84375;934.5986;;;;
2022/03/29 04:37:08;;;;;;;23.4;12.7;;;;;;;5.48;66.84668;934.6039;;;;
2022/03/29 04:39:33;;;;;;;20.6;11.6;;;;;;;5.39;66.95703;934.5274;;;;
2022/03/29 04:41:58;;;;;;;21.9;11;;;;;;;5.33;67.02734;934.552;;;;
2022/03/29 04:44:24;;;;;;;17.8;11.9;;;;;;;5.29;67.2002;934.5338;;;;
2022/03/29 04:46:49;;;;;;;22.7;13.6;;;;;;;5.33;67.52344;934.4928;;;;
2022/03/29 04:49:14;;;;;;;21.6;14;;;;;;;5.32;67.91699;934.4596;;;;
2022/03/29 04:51:39;;;;;;;26.4;13.7;;;;;;;5.32;67.58789;934.5455;;;;
2022/03/29 04:54:05;;;;;;;24.8;13.6;;;;;;;5.36;67.15527;934.488;;;;
2022/03/29 04:56:30;;;;;;;20.5;12.3;;;;;;;5.38;67.11426;934.4207;;;;
2022/03/29 04:58:55;;;;;;;25;12.7;;;;;;;5.4;67.03711;934.4612;;;;
2022/03/29 05:01:20;;;;;;;21.1;12.6;;;;;;;5.4;66.95801;934.3948;;;;
2022/03/29 05:03:46;;;;;;;20.2;12.1;;;;;;;5.42;66.82715;934.4013;;;;
2022/03/29 05:06:11;;;;;;;19.4;12.5;;;;;;;5.55;66.54199;934.4057;;;;
2022/03/29 05:08:37;;;;;;;19.7;12.8;;;;;;;5.63;66.1709;934.3492;;;;
2022/03/29 05:11:02;;;;;;;21.3;12.1;;;;;;;5.72;66.28613;934.3055;;;;
2022/03/29 05:13:27;;;;;;;26.2;14.3;;;;;;;5.97;65.58984;934.3323;;;;
2022/03/29 05:15:52;;;;;;;25.8;15.2;;;;;;;6.06;64.5752;934.3408;;;;
2022/03/29 05:18:17;;;;;;;25.9;14.9;;;;;;;5.93;64.88574;934.3348;;;;
2022/03/29 05:20:42;;;;;;;24.5;15;;;;;;;5.76;65.6709;934.3552;;;;
2022/03/29 05:23:09;;;;;;;25.4;15.1;;;;;;;5.68;65.80664;934.3204;;;;
2022/03/29 05:25:34;;;;;;;27.8;16.3;;;;;;;5.53;66.25684;934.3066;;;;
2022/03/29 05:27:59;;;;;;;26.6;14;;;;;;;5.48;66.10352;934.3506;;;;
2022/03/29 05:30:24;;;;;;;21.2;12.8;;;;;;;5.56;65.39355;934.3143;;;;
2022/03/29 05:32:51;;;;;;;34.4;13.2;;;;;;;5.73;64.93457;934.3198;;;;
2022/03/29 05:35:14;;;;;;;26.1;13.3;;;;;;;5.9;64.54102;934.3002;;;;
2022/03/29 05:37:40;;;;;;;26.3;15.1;;;;;;;6.04;63.83789;934.2186;;;;
2022/03/29 05:40:06;;;;;;;25.6;14.6;;;;;;;6.08;64.02441;934.225;;;;
2022/03/29 05:42:30;;;;;;;29.9;15.1;;;;;;;6.15;63.3457;934.2327;;;;
2022/03/29 05:44:55;;;;;;;31.3;14.8;;;;;;;6.45;62.40723;934.1985;;;;
2022/03/29 05:49:46;;;;;;;33.5;15.8;;;;;;;6.87;61.4834;934.2111;;;;
2022/03/29 05:52:11;;;;;;;33;17.6;;;;;;;6.95;60.99609;934.241;;;;
2022/03/29 05:54:39;;;;;;;27;14.6;;;;;;;6.89;61.29395;934.2328;;;;
2022/03/29 05:57:02;;;;;;;29.4;14.1;;;;;;;6.79;61.68652;934.2514;;;;
2022/03/29 05:59:26;;;;;;;31.1;14.2;;;;;;;6.72;62.03809;934.2478;;;;
2022/03/29 06:01:52;;;;;;;26.5;14.5;;;;;;;6.84;61.97754;934.2289;;;;
2022/03/29 06:04:22;;;;;;;38.4;15.5;;;;;;;6.87;61.98145;934.2166;;;;
2022/03/29 06:06:44;;;;;;;28.2;14.9;;;;;;;7.03;61.59668;934.2282;;;;
2022/03/29 06:09:08;;;;;;;31.6;14.9;;;;;;;7.31;60.46973;934.2867;;;;
2022/03/29 06:11:33;;;;;;;33.2;15.3;;;;;;;7.47;59.46094;934.2481;;;;
2022/03/29 06:13:58;;;;;;;27.8;15.2;;;;;;;7.62;59.1416;934.2633;;;;
2022/03/29 06:16:23;;;;;;;28.1;15.8;;;;;;;7.48;59.93848;934.3062;;;;
2022/03/29 06:18:48;;;;;;;28.1;14.4;;;;;;;7.56;59.16699;934.2764;;;;
2022/03/29 06:21:16;;;;;;;23.6;12.7;;;;;;;7.41;58.95508;934.2521;;;;
2022/03/29 06:23:40;;;;;;;23.2;13.6;;;;;;;7.6;59.35352;934.2912;;;;
2022/03/29 06:26:05;;;;;;;22.4;12.2;;;;;;;7.54;58.50586;934.257;;;;
2022/03/29 06:28:30;;;;;;;22.4;12.5;;;;;;;7.7;58.08691;934.285;;;;
2022/03/29 06:30:57;;;;;;;21.1;11.3;;;;;;;7.7;57.17969;934.2755;;;;
2022/03/29 06:33:22;;;;;;;23;11.7;;;;;;;8.02;56.29004;934.2477;;;;
2022/03/29 06:35:49;;;;;;;16.6;10.2;;;;;;;8.36;56.1416;934.2101;;;;
2022/03/29 06:38:14;;;;;;;18.1;10.2;;;;;;;9.04;51.85059;934.2012;;;;
2022/03/29 06:40:40;;;;;;;24.9;12;;;;;;;9.86;50.58105;934.0967;;;;
2022/03/29 06:43:05;;;;;;;20.7;10.2;;;;;;;9.85;49.74707;934.1364;;;;
2022/03/29 06:45:32;;;;;;;19.3;10.8;;;;;;;9.77;51.85742;934.158;;;;
2022/03/29 06:47:57;;;;;;;16.9;9.4;;;;;;;10.15;49.26758;934.0761;;;;
2022/03/29 06:50:22;;;;;;;22.8;11.2;;;;;;;9.96;50.96777;934.1099;;;;
2022/03/29 06:52:47;;;;;;;20;11;;;;;;;10.58;49.13574;934.103;;;;
2022/03/29 06:55:13;;;;;;;22.2;11.6;;;;;;;10.96;46.62891;934.0923;;;;
2022/03/29 06:57:38;;;;;;;22.4;11.3;;;;;;;10.83;46.30566;934.0722;;;;
2022/03/29 07:00:03;;;;;;;15;9.6;;;;;;;10.87;45.96777;934.0946;;;;
2022/03/29 07:02:30;;;;;;;14.5;9;;;;;;;11.45;44.64551;934.0605;;;;
2022/03/29 07:04:55;;;;;;;20.8;11.7;;;;;;;11.49;44.67285;934.051;;;;
2022/03/29 07:07:21;;;;;;;25.5;12.2;;;;;;;11.23;46.38281;934.0237;;;;
2022/03/29 07:12:11;;;;;;;23.1;11.5;;;;;;;10.8;48.16602;934.0767;;;;
2022/03/29 07:14:37;;;;;;;20.4;11;;;;;;;10.81;48.14453;934.0634;;;;
2022/03/29 07:17:05;;;;;;;21.1;10.7;;;;;;;10.79;47.8916;933.9667;;;;
2022/03/29 07:19:28;;;;;;;17.6;9.8;;;;;;;10.92;46.69238;934.0461;;;;
2022/03/29 07:21:53;;;;;;;16.3;8.7;;;;;;;11.03;44.17969;933.9724;;;;
2022/03/29 07:24:18;;;;;;;16.1;8.3;;;;;;;11.18;43.05176;933.9015;;;;
2022/03/29 07:26:44;;;;;;;18.5;8.5;;;;;;;10.99;44.43848;933.9322;;;;
2022/03/29 07:29:09;;;;;;;12.9;8.3;;;;;;;11.01;43.8457;933.8805;;;;
2022/03/29 07:31:36;;;;;;;14.4;8;;;;;;;11.28;42.99316;933.8865;;;;
2022/03/29 07:34:01;;;;;;;16.2;9.4;;;;;;;11.5;42.94531;933.8851;;;;
2022/03/29 07:36:26;;;;;;;17.5;9.5;;;;;;;12.28;42.7373;933.8604;;;;
2022/03/29 07:38:52;;;;;;;16.7;9.5;;;;;;;12.88;44.25293;933.8613;;;;
2022/03/29 07:41:21;;;;;;;18.1;10.2;;;;;;;13.89;41.11133;933.8416;;;;
2022/03/29 07:43:46;;;;;;;18.7;9.7;;;;;;;13.86;39.02539;933.813;;;;
2022/03/29 07:46:11;;;;;;;16;8.8;;;;;;;14.6;37.84766;933.759;;;;
2022/03/29 07:48:36;;;;;;;14.5;8.9;;;;;;;15.22;35.89355;933.7721;;;;
2022/03/29 07:51:02;;;;;;;14;8.4;;;;;;;14.65;35.38574;933.7915;;;;
2022/03/29 07:53:29;;;;;;;12.9;7.7;;;;;;;14.23;35.7998;933.7456;;;;
2022/03/29 07:55:54;;;;;;;14.4;8.6;;;;;;;13.68;36.79004;933.7642;;;;
2022/03/29 07:58:19;;;;;;;12.6;7.8;;;;;;;13.84;35.87207;933.7244;;;;
2022/03/29 08:00:49;;;;;;;14.8;8.3;;;;;;;14.08;36.06348;933.7285;;;;
2022/03/29 08:03:10;;;;;;;13.6;8.9;;;;;;;14.42;35.35449;933.7411;;;;
2022/03/29 08:05:36;;;;;;;12.5;8.6;;;;;;;13.86;35.6543;933.6986;;;;
2022/03/29 08:08:01;;;;;;;11.2;7.8;;;;;;;13.75;35.80664;933.6426;;;;
2022/03/29 08:10:28;;;;;;;10.9;7.7;;;;;;;14.21;35.99414;933.7158;;;;
2022/03/29 08:12:52;;;;;;;13.6;7.7;;;;;;;14.86;33.9834;933.6814;;;;
2022/03/29 08:15:17;;;;;;;12.7;7.5;;;;;;;15.96;32.57813;933.6121;;;;
2022/03/29 08:17:43;;;;;;;10.3;7.4;;;;;;;16.86;31.5791;933.5414;;;;
2022/03/29 08:20:07;;;;;;;12;7.5;;;;;;;17.89;31.15332;933.4362;;;;
2022/03/29 08:22:34;;;;;;;11.6;7.1;;;;;;;18.63;30.67188;933.4556;;;;
2022/03/29 08:24:59;;;;;;;10.7;7.4;;;;;;;19.08;28.23438;933.4604;;;;
2022/03/29 08:27:25;;;;;;;10.5;7;;;;;;;17.05;29.59961;933.3549;;;;
2022/03/29 08:29:50;;;;;;;10;6.8;;;;;;;19.24;29.26953;933.3428;;;;
2022/03/29 08:32:16;;;;;;;11.7;7.2;;;;;;;18.16;30.01172;933.3912;;;;
2022/03/29 08:34:41;;;;;;;8.9;6.5;;;;;;;18.63;27.9375;933.3776;;;;
2022/03/29 08:37:07;;;;;;;10.8;7.2;;;;;;;19.4;26.4375;933.3375;;;;
2022/03/29 08:39:32;;;;;;;10.7;7.4;;;;;;;18.82;26.93848;933.3164;;;;
2022/03/29 08:41:57;;;;;;;10.6;7.5;;;;;;;18.67;26.94043;933.2852;;;;
2022/03/29 08:44:23;;;;;;;10.6;7.4;;;;;;;17.78;28.48828;933.2397;;;;
2022/03/29 08:46:49;;;;;;;13.4;7.3;;;;;;;18.19;28.5957;933.1922;;;;
2022/03/29 08:49:13;;;;;;;10.6;7.4;;;;;;;20.46;26.20898;933.1683;;;;
2022/03/29 08:51:38;;;;;;;11.8;7.5;;;;;;;20.23;25.26172;933.1317;;;;
2022/03/29 08:54:04;;;;;;;11;7.4;;;;;;;21.21;25.86719;933.0642;;;;
2022/03/29 08:56:29;;;;;;;13;7.1;;;;;;;20.03;26.73145;933.0695;;;;
2022/03/29 08:58:56;;;;;;;11.7;7.4;;;;;;;20.74;25.58301;932.9647;;;;
2022/03/29 09:01:22;;;;;;;9.9;7.3;;;;;;;19.53;26.11816;933.0446;;;;
2022/03/29 09:03:47;;;;;;;9.3;6.8;;;;;;;18.8;26.62207;933.0062;;;;
2022/03/29 09:06:12;;;;;;;10.8;7.6;;;;;;;18.01;27.58496;932.9624;;;;
2022/03/29 09:08:37;;;;;;;11.7;7.4;;;;;;;18.95;27.93555;932.946;;;;
2022/03/29 09:11:02;;;;;;;10;7.3;;;;;;;20.89;25.32324;932.8628;;;;
2022/03/29 09:13:29;;;;;;;13.4;7.2;;;;;;;21.25;23.86914;932.8878;;;;
2022/03/29 09:15:54;;;;;;;11.2;7.9;;;;;;;22.48;23.24316;932.842;;;;
2022/03/29 09:18:19;;;;;;;8.8;6.6;;;;;;;23.07;22.06348;932.8535;;;;
2022/03/29 09:20:45;;;;;;;10.4;6.9;;;;;;;23.01;22.2832;932.8771;;;;
2022/03/29 09:23:09;;;;;;;10.6;6.7;;;;;;;21.82;23.72363;932.8438;;;;
2022/03/29 09:25:34;;;;;;;10.5;7.2;;;;;;;21.6;22.57617;932.7903;;;;
2022/03/29 09:28:00;;;;;;;10.3;6.7;;;;;;;21.95;23.25;932.7063;;;;
2022/03/29 09:30:24;;;;;;;12.8;7.6;;;;;;;22.71;23.10156;932.7068;;;;
2022/03/29 09:32:50;;;;;;;9.6;6.6;;;;;;;22.05;21.94238;932.5832;;;;
2022/03/29 09:35:17;;;;;;;11.3;7;;;;;;;21.76;23.20508;932.6127;;;;
2022/03/29 09:37:44;;;;;;;9.1;6.7;;;;;;;21.69;24.04492;932.5831;;;;
2022/03/29 09:40:06;;;;;;;11.6;6.4;;;;;;;23.3;22.09863;932.5566;;;;
2022/03/29 09:42:31;;;;;;;11.4;6.9;;;;;;;23.79;22.12305;932.468;;;;
2022/03/29 09:44:58;;;;;;;10.9;6.9;;;;;;;24.87;20.76074;932.438;;;;
2022/03/29 09:47:22;;;;;;;9.8;6.8;;;;;;;24.24;20.47266;932.3567;;;;
2022/03/29 09:49:47;;;;;;;10.7;7.1;;;;;;;23.89;20.72754;932.293;;;;
2022/03/29 09:52:14;;;;;;;13.1;7.7;;;;;;;23.13;19.64551;932.3184;;;;
2022/03/29 09:54:37;;;;;;;10.1;6.8;;;;;;;23.54;20.22852;932.307;;;;
2022/03/29 09:57:04;;;;;;;15.7;7.3;;;;;;;24.22;20.49512;932.2582;;;;
2022/03/29 09:59:28;;;;;;;10;7.6;;;;;;;23.21;20.66016;932.2172;;;;
2022/03/29 10:01:55;;;;;;;10.6;7.6;;;;;;;22.79;20.55859;932.2162;;;;
2022/03/29 10:04:18;;;;;;;11.6;7.2;;;;;;;22.56;20.45313;932.2283;;;;
2022/03/29 10:06:43;;;;;;;10.3;7.6;;;;;;;21.76;21.30762;932.1442;;;;
2022/03/29 10:11:34;;;;;;;9.9;7.4;;;;;;;22.36;23.74121;932.1526;;;;
2022/03/29 10:13:59;;;;;;;9.7;7;;;;;;;22.78;22.13086;932.0696;;;;
2022/03/29 10:16:26;;;;;;;10.2;7.3;;;;;;;23.17;20.97559;932.0613;;;;
2022/03/29 10:18:51;;;;;;;12.3;7.6;;;;;;;23.49;21.9668;932.0483;;;;
2022/03/29 10:21:16;;;;;;;9.8;7.2;;;;;;;23.41;22.25684;931.9978;;;;
2022/03/29 10:23:55;;;;;;;9.5;7.1;;;;;;;23.44;20.37695;931.8997;;;;
2022/03/29 10:26:21;;;;;;;10.6;7.3;;;;;;;24.12;21.24414;931.878;;;;
2022/03/29 10:28:46;;;;;;;8.6;6.4;;;;;;;24.94;20.29199;931.8574;;;;
2022/03/29 10:31:10;;;;;;;10.7;7;;;;;;;24.67;20.12695;931.8145;;;;
2022/03/29 10:33:37;;;;;;;10.9;7.1;;;;;;;24.66;20.96289;931.7477;;;;
2022/03/29 10:36:02;;;;;;;9.4;7.2;;;;;;;24.97;20.5293;931.7645;;;;
2022/03/29 10:38:30;;;;;;;12.3;7.5;;;;;;;25.27;19.44531;931.7244;;;;
2022/03/29 10:40:55;;;;;;;10;7.3;;;;;;;25.61;19.05859;931.7174;;;;
2022/03/29 10:43:20;;;;;;;10.8;7.4;;;;;;;25.24;18.86523;931.6541;;;;
2022/03/29 10:45:45;;;;;;;14.8;7.2;;;;;;;24.15;21.92871;931.6088;;;;
2022/03/29 10:48:12;;;;;;;12.9;7.6;;;;;;;23.89;21.91602;931.5865;;;;
2022/03/29 10:50:35;;;;;;;9.7;7;;;;;;;23.96;21.29492;931.556;;;;
2022/03/29 10:53:00;;;;;;;11;8.1;;;;;;;23.75;20.87402;931.5446;;;;
2022/03/29 10:55:27;;;;;;;9.7;7.7;;;;;;;22.97;21.96484;931.5002;;;;
2022/03/29 10:57:50;;;;;;;13.8;8.4;;;;;;;23.02;22.2959;931.5218;;;;
2022/03/29 11:00:17;;;;;;;15.7;8.6;;;;;;;22.68;22.37305;931.4866;;;;
2022/03/29 11:02:42;;;;;;;11.7;8.4;;;;;;;22.26;24.0293;931.4508;;;;
2022/03/29 11:05:07;;;;;;;14;8.1;;;;;;;22.06;23.61914;931.4443;;;;
2022/03/29 11:07:35;;;;;;;10.3;7.6;;;;;;;22.67;22.78223;931.3795;;;;
2022/03/29 11:09:59;;;;;;;13.4;8;;;;;;;22.55;23.86816;931.3295;;;;
2022/03/29 11:12:51;;;;;;;12.9;8.1;;;;;;;22.52;22.99902;931.2668;;;;
2022/03/29 11:15:15;;;;;;;14.8;8;;;;;;;22.33;24.16113;931.2798;;;;
2022/03/29 11:17:41;;;;;;;10;7.4;;;;;;;22.42;23.52051;931.226;;;;
2022/03/29 11:20:05;;;;;;;10.1;7.9;;;;;;;22.45;22.9834;931.1445;;;;
2022/03/29 11:22:31;;;;;;;20.8;8.9;;;;;;;22.75;22.09473;931.1584;;;;
2022/03/29 11:24:55;;;;;;;15.1;7.9;;;;;;;22.89;22.79492;931.0977;;;;
2022/03/29 11:27:24;;;;;;;11.2;7.8;;;;;;;22.9;22.60645;930.9903;;;;
2022/03/29 11:29:48;;;;;;;12;7.7;;;;;;;22.63;22.34668;930.9098;;;;
2022/03/29 11:32:13;;;;;;;10.7;7.4;;;;;;;22.19;22.46582;930.9136;;;;
2022/03/29 11:34:39;;;;;;;11.9;7.4;;;;;;;22.28;22.98535;930.8391;;;;
2022/03/29 11:37:03;;;;;;;11.6;7.3;;;;;;;22.3;22.43555;930.7935;;;;
2022/03/29 11:39:30;;;;;;;12.2;8;;;;;;;22.01;23.82715;930.7221;;;;
2022/03/29 11:41:54;;;;;;;12.8;7.8;;;;;;;21.56;22.88965;930.7786;;;;
2022/03/29 11:44:19;;;;;;;11.2;7.9;;;;;;;21.47;23.97363;930.7438;;;;
2022/03/29 11:46:45;;;;;;;13.4;7.6;;;;;;;21.4;23.03418;930.6589;;;;
2022/03/29 11:49:10;;;;;;;10.9;7.6;;;;;;;21.15;24.0625;930.6596;;;;
2022/03/29 11:51:36;;;;;;;10.4;7.6;;;;;;;21.18;24.66016;930.5977;;;;
2022/03/29 11:54:01;;;;;;;10.4;7.1;;;;;;;20.98;23.49219;930.6479;;;;
2022/03/29 11:56:28;;;;;;;10.2;7.3;;;;;;;20.72;25.33594;930.5793;;;;
2022/03/29 11:58:53;;;;;;;12;7.5;;;;;;;20.86;24.29199;930.5474;;;;
2022/03/29 12:01:18;;;;;;;54;13.4;;;;;;;20.74;24.2627;930.4911;;;;
2022/03/29 12:03:43;;;;;;;11.9;8.5;;;;;;;20.7;24.1543;930.4596;;;;
2022/03/29 12:06:09;;;;;;;27.9;9.7;;;;;;;20.59;24.79102;930.4283;;;;
2022/03/29 12:08:34;;;;;;;11.6;8.3;;;;;;;20.59;24.70996;930.3992;;;;
2022/03/29 12:10:59;;;;;;;12.1;8.4;;;;;;;20.84;24.4082;930.3699;;;;
2022/03/29 12:13:24;;;;;;;12.7;8.1;;;;;;;21.18;24.49707;930.2665;;;;
2022/03/29 12:15:49;;;;;;;12.3;8.2;;;;;;;21;24.9541;930.2658;;;;
2022/03/29 12:20:41;;;;;;;16.6;8.7;;;;;;;20.68;25.13477;930.184;;;;
2022/03/29 12:23:06;;;;;;;46;10.7;;;;;;;20.71;24.7041;930.0849;;;;
2022/03/29 12:25:32;;;;;;;37.8;10.8;;;;;;;20.65;24.74805;930.0531;;;;
2022/03/29 12:27:58;;;;;;;16.9;9.1;;;;;;;20.56;24.89453;929.9792;;;;
2022/03/29 12:30:22;;;;;;;11.3;8.3;;;;;;;20.55;24.87012;929.9586;;;;
2022/03/29 12:32:47;;;;;;;11.3;8.3;;;;;;;20.74;24.09863;929.8956;;;;
2022/03/29 12:35:13;;;;;;;10.9;7.9;;;;;;;20.81;24.62793;929.8524;;;;
2022/03/29 12:37:38;;;;;;;11.1;8;;;;;;;20.73;24.23828;929.8502;;;;
2022/03/29 12:40:05;;;;;;;10.1;8.1;;;;;;;20.62;25.85645;929.8069;;;;
2022/03/29 12:42:28;;;;;;;10.5;8.1;;;;;;;20.45;25.09766;929.7639;;;;
2022/03/29 12:44:53;;;;;;;12.1;8.1;;;;;;;20.5;25.45215;929.7292;;;;
2022/03/29 12:47:19;;;;;;;15.5;8.9;;;;;;;20.68;24.49219;929.7213;;;;
2022/03/29 12:49:43;;;;;;;77.1;15.4;;;;;;;20.93;24.35449;929.6912;;;;
2022/03/29 12:52:08;;;;;;;25.4;9.2;;;;;;;21.02;24.51074;929.7325;;;;
2022/03/29 12:54:34;;;;;;;12;8.6;;;;;;;21.02;24.99023;929.5818;;;;
2022/03/29 12:56:59;;;;;;;13.7;8.4;;;;;;;20.62;26.13672;929.6207;;;;
2022/03/29 12:59:24;;;;;;;11.3;8.2;;;;;;;20.77;25.92285;929.6114;;;;
2022/03/29 13:01:50;;;;;;;12.6;8.5;;;;;;;20.82;25.37695;929.5962;;;;
2022/03/29 13:04:15;;;;;;;13.7;8.6;;;;;;;20.58;25.74805;929.4535;;;;
2022/03/29 13:06:42;;;;;;;110.7;17.5;;;;;;;20.93;25.53516;929.5087;;;;
2022/03/29 13:09:07;;;;;;;16.9;8.9;;;;;;;21.51;24.83105;929.4543;;;;
2022/03/29 13:11:32;;;;;;;12.5;8.3;;;;;;;21.59;25.1748;929.4128;;;;
2022/03/29 13:13:57;;;;;;;13.5;8.9;;;;;;;21.51;25.39355;929.3865;;;;
2022/03/29 13:16:23;;;;;;;13.9;8.5;;;;;;;21.36;25.52441;929.4152;;;;
2022/03/29 13:18:49;;;;;;;30.4;10;;;;;;;22.06;24.88477;929.3695;;;;
2022/03/29 13:21:14;;;;;;;11.6;7.8;;;;;;;22.6;23.4834;929.2944;;;;
2022/03/29 13:23:38;;;;;;;12.8;8.3;;;;;;;22.75;24.19629;929.2388;;;;
2022/03/29 13:26:03;;;;;;;11.7;8.3;;;;;;;22.36;24.16309;929.1652;;;;
2022/03/29 13:28:29;;;;;;;13.4;8.3;;;;;;;21.43;24.6748;929.079;;;;
2022/03/29 13:30:54;;;;;;;13.6;8.4;;;;;;;21.22;25.94922;929.1199;;;;
2022/03/29 13:33:21;;;;;;;11.1;8.1;;;;;;;20.83;25.51758;929.0844;;;;
2022/03/29 13:35:46;;;;;;;12.3;8.7;;;;;;;20.85;25.20313;929.09;;;;
2022/03/29 13:38:12;;;;;;;12.4;8.7;;;;;;;20.93;25.6748;929.0283;;;;
2022/03/29 13:40:37;;;;;;;12.1;9;;;;;;;20.36;26.75195;928.9981;;;;
2022/03/29 13:43:04;;;;;;;15.1;8.8;;;;;;;19.93;27.95117;928.9218;;;;
2022/03/29 13:45:29;;;;;;;12.1;8.3;;;;;;;20.14;27.12402;928.8436;;;;
2022/03/29 13:47:57;;;;;;;10.4;7.5;;;;;;;20.18;27.20801;928.8269;;;;
2022/03/29 13:50:20;;;;;;;12.2;8.2;;;;;;;20.04;27.52539;928.8262;;;;
2022/03/29 13:52:47;;;;;;;11;8.2;;;;;;;19.93;27.41406;928.8087;;;;
2022/03/29 13:55:12;;;;;;;15.6;8.1;;;;;;;19.95;27.4502;928.76;;;;
2022/03/29 13:57:37;;;;;;;13.3;8.2;;;;;;;19.82;27.15039;928.7816;;;;
2022/03/29 14:00:04;;;;;;;13.3;8.6;;;;;;;19.38;27.91602;928.7159;;;;
2022/03/29 14:02:30;;;;;;;14.2;8.5;;;;;;;19.24;27.86035;928.6071;;;;
2022/03/29 14:04:55;;;;;;;11.3;8.2;;;;;;;19.19;28.18359;928.6383;;;;
2022/03/29 14:07:20;;;;;;;12;8.2;;;;;;;19.14;28.36621;928.6539;;;;
2022/03/29 14:09:46;;;;;;;12.1;8.7;;;;;;;19.2;28.4043;928.6213;;;;
2022/03/29 14:12:11;;;;;;;12.7;8.5;;;;;;;19.32;29.93945;928.5836;;;;
2022/03/29 14:14:36;;;;;;;14.6;8.4;;;;;;;19.13;28.35449;928.5295;;;;
2022/03/29 14:17:01;;;;;;;11.9;7.7;;;;;;;19.06;28.11719;928.3828;;;;
2022/03/29 14:19:28;;;;;;;11.4;7.5;;;;;;;19.04;28.87207;928.4103;;;;